Time;durP1;ratioP1;P1;durP2;ratioP2;P2;SDS_P1;SDS_P2;PMS_P1;PMS_P2;Temp;Humidity;BMP_temperature;BMP_pressure;BME280_temperature;BME280_humidity;BME280_pressure;Samples;Min_cycle;Max_cycle;Signal;HPM_P1;HPM_P2
2022/12/30 00:02:03;;;;;;;1.37;1.27;;;22.10;60.00;;;;;;5049357;28;20462;-70
2022/12/30 00:04:32;;;;;;;1.27;1.03;;;22.10;60.00;;;;;;5050260;28;20946;-69
2022/12/30 00:07:01;;;;;;;1.53;1.40;;;22.10;59.90;;;;;;5046268;28;20561;-69
2022/12/30 00:09:29;;;;;;;1.17;1.07;;;22.10;59.90;;;;;;5051044;28;20448;-72
2022/12/30 00:33:06;;;;;;;1.40;1.10;;;22.10;59.90;;;;;;5049992;28;20459;-69
2022/12/30 00:34:29;;;;;;;1.17;0.90;;;22.00;60.00;;;;;;5046043;28;20558;-69
2022/12/30 00:36:59;;;;;;;0.80;0.80;;;22.00;60.00;;;;;;5048103;28;20481;-68
2022/12/30 00:39:27;;;;;;;0.83;0.83;;;22.00;59.90;;;;;;5047684;28;20861;-68
2022/12/30 00:44:41;;;;;;;1.10;1.00;;;22.10;59.90;;;;;;5055833;28;20533;-68
2022/12/30 00:47:11;;;;;;;1.10;1.00;;;22.10;59.90;;;;;;5043013;28;20455;-68
2022/12/30 00:57:57;;;;;;;1.27;1.17;;;22.10;59.90;;;;;;5075000;28;20460;-69
2022/12/30 01:00:25;;;;;;;0.87;0.87;;;22.10;59.90;;;;;;5071600;28;20577;-69
2022/12/30 01:02:54;;;;;;;0.70;0.70;;;22.10;59.90;;;;;;5070519;28;20940;-69
2022/12/30 01:05:22;;;;;;;1.07;0.80;;;22.10;59.90;;;;;;5075953;28;20457;-68
2022/12/30 01:07:52;;;;;;;0.80;0.80;;;22.10;59.90;;;;;;5074807;28;20916;-69
2022/12/30 01:10:20;;;;;;;2.13;1.20;;;22.10;59.90;;;;;;5065545;28;20933;-69
2022/12/30 01:12:49;;;;;;;0.97;0.70;;;22.00;59.90;;;;;;5076450;28;20507;-69
2022/12/30 01:15:17;;;;;;;1.10;0.73;;;22.00;59.90;;;;;;5063079;28;20480;-68
2022/12/30 01:17:46;;;;;;;0.80;0.80;;;22.00;59.90;;;;;;5077851;28;20449;-68
2022/12/30 01:20:14;;;;;;;0.97;0.80;;;22.00;59.90;;;;;;5062840;28;20798;-68
2022/12/30 01:22:43;;;;;;;1.17;0.90;;;22.00;60.00;;;;;;5066342;28;20597;-70
2022/12/30 01:25:12;;;;;;;1.03;0.90;;;22.00;60.00;;;;;;5067365;28;20914;-68
2022/12/30 01:27:41;;;;;;;0.63;0.63;;;22.00;60.00;;;;;;5070668;28;20545;-69
2022/12/30 01:30:10;;;;;;;0.87;0.83;;;22.00;60.00;;;;;;5067385;28;20995;-68
2022/12/30 01:32:38;;;;;;;1.00;0.90;;;22.00;60.00;;;;;;5071735;28;20501;-68
2022/12/30 01:35:07;;;;;;;0.70;0.70;;;22.00;60.00;;;;;;5071447;28;20563;-68
2022/12/30 01:37:35;;;;;;;2.93;0.80;;;22.00;60.00;;;;;;5072413;28;20476;-68
2022/12/30 01:40:04;;;;;;;0.80;0.80;;;22.00;60.00;;;;;;5075276;28;20949;-71
2022/12/30 01:42:39;;;;;;;1.00;1.00;;;22.00;60.00;;;;;;5070173;28;20472;-69
2022/12/30 01:45:18;;;;;;;1.60;0.70;;;22.00;60.00;;;;;;5069443;28;20461;-68
2022/12/30 01:47:52;;;;;;;1.27;0.67;;;22.00;60.00;;;;;;5068491;28;20540;-68
2022/12/30 01:50:28;;;;;;;0.73;0.73;;;22.00;60.00;;;;;;5064939;28;20475;-68
2022/12/30 01:53:00;;;;;;;0.67;0.60;;;22.00;60.10;;;;;;5049127;28;20469;-69
2022/12/30 01:55:32;;;;;;;0.60;0.60;;;22.00;60.00;;;;;;5052676;28;20511;-68
2022/12/30 01:58:06;;;;;;;0.90;0.90;;;22.00;60.00;;;;;;5053903;28;20492;-68
2022/12/30 02:00:34;;;;;;;0.90;0.90;;;22.00;60.00;;;;;;5048270;28;20452;-68
2022/12/30 02:03:03;;;;;;;1.43;0.80;;;22.00;59.90;;;;;;5047608;28;20458;-69
2022/12/30 02:05:36;;;;;;;2.03;1.13;;;22.00;59.90;;;;;;5055082;28;20477;-68
2022/12/30 02:08:09;;;;;;;0.83;0.70;;;22.00;59.90;;;;;;5051625;28;20466;-69
2022/12/30 02:10:39;;;;;;;0.53;0.53;;;22.00;59.90;;;;;;5049864;28;20466;-68
2022/12/30 02:13:11;;;;;;;0.80;0.57;;;22.00;59.80;;;;;;5054518;28;20461;-68
2022/12/30 02:15:52;;;;;;;0.97;0.70;;;22.00;59.80;;;;;;5055715;28;21182;-68
2022/12/30 02:18:29;;;;;;;1.27;0.80;;;22.00;59.80;;;;;;5044632;28;20460;-69
2022/12/30 02:21:32;;;;;;;0.70;0.70;;;22.00;59.80;;;;;;5053087;28;20879;-68
2022/12/30 02:24:39;;;;;;;2.20;0.60;;;22.00;59.80;;;;;;5047193;28;20945;-68
2022/12/30 02:27:16;;;;;;;0.90;0.57;;;22.00;59.60;;;;;;5029466;28;20874;-68
2022/12/30 02:30:07;;;;;;;0.60;0.60;;;22.00;59.60;;;;;;5036103;28;20489;-69
2022/12/30 02:32:52;;;;;;;0.60;0.60;;;22.00;59.40;;;;;;5051847;28;20458;-68
2022/12/30 02:35:23;;;;;;;1.63;0.50;;;22.00;59.50;;;;;;5049104;28;20514;-69
2022/12/30 02:38:00;;;;;;;1.07;0.70;;;22.00;59.50;;;;;;5048365;28;20471;-69
2022/12/30 02:44:36;;;;;;;0.50;0.50;;;22.00;59.70;;;;;;5034654;28;20505;-68
2022/12/30 02:46:13;;;;;;;0.73;0.50;;;22.00;59.70;;;;;;5047571;28;20482;-68
2022/12/30 02:48:46;;;;;;;0.50;0.50;;;22.00;59.70;;;;;;5046451;28;20505;-69
2022/12/30 02:54:03;;;;;;;0.50;0.50;;;22.00;59.70;;;;;;5050336;28;20526;-68
2022/12/30 02:56:31;;;;;;;0.60;0.60;;;22.00;59.60;;;;;;5054929;28;20574;-68
2022/12/30 03:04:54;;;;;;;1.40;0.90;;;22.00;59.60;;;;;;5048342;28;20478;-69
2022/12/30 03:07:31;;;;;;;0.70;0.43;;;22.00;59.60;;;;;;5053877;28;20513;-68
2022/12/30 03:13:07;;;;;;;0.40;0.40;;;22.00;59.60;;;;;;5049936;28;20486;-71
2022/12/30 03:15:45;;;;;;;1.10;0.60;;;22.00;59.60;;;;;;5046193;28;20470;-68
2022/12/30 03:18:14;;;;;;;0.50;0.50;;;22.00;59.60;;;;;;5056558;28;20901;-69
2022/12/30 03:20:45;;;;;;;0.57;0.50;;;22.00;59.60;;;;;;5052048;28;20564;-68
2022/12/30 03:28:50;;;;;;;0.40;0.40;;;22.00;59.50;;;;;;5060033;28;20455;-68
2022/12/30 03:31:19;;;;;;;0.47;0.47;;;22.00;59.50;;;;;;5057239;28;20441;-68
2022/12/30 03:33:48;;;;;;;0.50;0.50;;;22.00;59.50;;;;;;5051786;28;20815;-68
2022/12/30 03:36:22;;;;;;;0.50;0.50;;;22.00;59.50;;;;;;5059410;28;20511;-72
2022/12/30 03:38:54;;;;;;;0.70;0.70;;;22.00;59.50;;;;;;5048517;28;20805;-69
2022/12/30 03:41:25;;;;;;;0.50;0.43;;;22.00;59.50;;;;;;5058244;28;21008;-68
2022/12/30 03:43:54;;;;;;;0.40;0.30;;;22.00;59.60;;;;;;5061830;28;20461;-68
2022/12/30 03:46:28;;;;;;;0.60;0.60;;;22.00;59.50;;;;;;5055396;28;20506;-69
2022/12/30 03:48:56;;;;;;;0.60;0.60;;;22.00;59.50;;;;;;5051132;28;20457;-68
2022/12/30 03:51:26;;;;;;;1.03;0.40;;;22.00;59.50;;;;;;5054381;28;20516;-69
2022/12/30 03:53:54;;;;;;;0.50;0.50;;;22.00;59.50;;;;;;5063258;28;20500;-71
2022/12/30 03:56:22;;;;;;;2.43;0.50;;;22.00;59.50;;;;;;5072129;28;20513;-69
2022/12/30 03:58:50;;;;;;;0.47;0.37;;;22.00;59.40;;;;;;5067590;28;20885;-69
2022/12/30 04:01:19;;;;;;;0.40;0.30;;;22.00;59.40;;;;;;5061970;28;20550;-69
2022/12/30 04:03:47;;;;;;;4.03;0.80;;;22.00;59.40;;;;;;5064890;28;20462;-68
2022/12/30 04:06:15;;;;;;;0.40;0.40;;;22.00;59.40;;;;;;5070849;28;20461;-69
2022/12/30 04:08:45;;;;;;;0.50;0.50;;;22.00;59.40;;;;;;5066958;28;20462;-70
2022/12/30 04:11:13;;;;;;;0.70;0.70;;;22.00;59.40;;;;;;5068339;28;20526;-68
2022/12/30 04:13:41;;;;;;;0.67;0.50;;;22.00;59.40;;;;;;5074142;28;20447;-68
2022/12/30 04:16:09;;;;;;;0.60;0.60;;;22.00;59.40;;;;;;5064149;28;20473;-68
2022/12/30 04:18:37;;;;;;;0.40;0.40;;;22.00;59.40;;;;;;5068308;28;20821;-68
2022/12/30 04:21:06;;;;;;;0.40;0.40;;;22.00;59.40;;;;;;5075722;28;20468;-69
2022/12/30 04:23:34;;;;;;;0.43;0.43;;;22.00;59.40;;;;;;5068568;28;20456;-68
2022/12/30 04:26:03;;;;;;;0.40;0.40;;;22.00;59.40;;;;;;5069047;28;20441;-68
2022/12/30 04:28:31;;;;;;;0.60;0.60;;;22.00;59.30;;;;;;5064784;28;20534;-68
2022/12/30 04:31:00;;;;;;;0.40;0.40;;;22.00;59.30;;;;;;5066338;28;20498;-68
2022/12/30 04:33:28;;;;;;;0.43;0.43;;;22.00;59.30;;;;;;5070407;28;20483;-68
2022/12/30 04:35:56;;;;;;;0.33;0.33;;;22.00;59.30;;;;;;5065327;28;20504;-68
2022/12/30 04:38:25;;;;;;;0.43;0.40;;;22.00;59.30;;;;;;5071063;28;20551;-68
2022/12/30 04:40:53;;;;;;;0.30;0.30;;;22.00;59.30;;;;;;5063997;28;20522;-68
2022/12/30 04:43:22;;;;;;;0.73;0.60;;;22.00;59.30;;;;;;5076789;28;20485;-68
2022/12/30 04:45:50;;;;;;;0.50;0.40;;;22.00;59.40;;;;;;5058369;28;20544;-68
2022/12/30 04:48:19;;;;;;;0.50;0.50;;;22.00;59.30;;;;;;5066084;28;20454;-68
2022/12/30 04:50:48;;;;;;;0.40;0.40;;;22.00;59.30;;;;;;5074102;28;20576;-68
2022/12/30 04:53:17;;;;;;;0.30;0.30;;;22.00;59.30;;;;;;5072609;28;20564;-71
2022/12/30 04:55:45;;;;;;;0.40;0.40;;;22.00;59.20;;;;;;5068037;28;20591;-69
2022/12/30 04:58:13;;;;;;;0.40;0.40;;;22.00;59.20;;;;;;5066139;28;20899;-68
2022/12/30 05:00:42;;;;;;;0.73;0.60;;;22.00;59.20;;;;;;5071826;28;20445;-68
2022/12/30 05:03:11;;;;;;;0.60;0.60;;;22.00;59.20;;;;;;5062493;28;21015;-68
2022/12/30 05:05:39;;;;;;;0.60;0.40;;;22.00;59.20;;;;;;5062699;28;20455;-68
2022/12/30 05:08:07;;;;;;;0.50;0.50;;;22.00;59.20;;;;;;5062258;28;20464;-68
2022/12/30 05:10:36;;;;;;;0.30;0.30;;;22.00;59.20;;;;;;5067543;28;20466;-68
2022/12/30 05:13:05;;;;;;;1.00;0.50;;;22.00;59.20;;;;;;5066763;28;20456;-69
2022/12/30 05:15:33;;;;;;;0.40;0.40;;;22.00;59.20;;;;;;5065208;28;20614;-68
2022/12/30 05:18:03;;;;;;;0.50;0.50;;;22.00;59.20;;;;;;5073724;28;20498;-69
2022/12/30 05:20:31;;;;;;;2.63;0.47;;;22.00;59.10;;;;;;5082728;28;21031;-69
2022/12/30 05:22:59;;;;;;;0.40;0.33;;;22.00;59.10;;;;;;5079467;28;20846;-69
2022/12/30 05:28:12;;;;;;;0.33;0.33;;;22.00;58.80;;;;;;5071156;28;20497;-69
2022/12/30 05:30:41;;;;;;;0.70;0.50;;;22.00;58.70;;;;;;5078675;28;20457;-70
2022/12/30 05:33:10;;;;;;;0.50;0.40;;;22.00;58.70;;;;;;5070378;28;20969;-68
2022/12/30 05:35:38;;;;;;;0.50;0.40;;;22.00;58.70;;;;;;5069173;28;20544;-70
2022/12/30 05:38:06;;;;;;;0.50;0.50;;;22.00;58.80;;;;;;5069275;28;20478;-69
2022/12/30 05:40:34;;;;;;;0.40;0.40;;;22.00;58.90;;;;;;5068767;28;20938;-69
2022/12/30 05:43:03;;;;;;;0.60;0.43;;;22.00;59.00;;;;;;5073972;28;20484;-69
2022/12/30 05:45:33;;;;;;;0.70;0.53;;;22.00;58.80;;;;;;5063165;28;20473;-68
2022/12/30 05:48:01;;;;;;;0.57;0.40;;;22.00;59.00;;;;;;5062609;28;20447;-68
2022/12/30 05:50:31;;;;;;;0.80;0.43;;;22.00;59.00;;;;;;5063766;28;20556;-69
2022/12/30 05:52:59;;;;;;;0.60;0.40;;;22.00;59.00;;;;;;5078445;28;20492;-69
2022/12/30 05:55:27;;;;;;;0.40;0.40;;;22.00;59.00;;;;;;5073682;28;20467;-68
2022/12/30 05:57:58;;;;;;;0.40;0.40;;;22.00;58.90;;;;;;5072241;28;20520;-68
2022/12/30 06:00:26;;;;;;;0.40;0.40;;;22.00;58.70;;;;;;5062565;28;21501;-69
2022/12/30 06:02:54;;;;;;;0.40;0.40;;;22.00;58.60;;;;;;5049798;28;20557;-68
2022/12/30 06:05:23;;;;;;;0.50;0.50;;;22.00;58.50;;;;;;5064687;28;20497;-68
2022/12/30 06:07:52;;;;;;;0.40;0.40;;;22.00;58.50;;;;;;5058390;28;20553;-68
2022/12/30 06:10:21;;;;;;;0.30;0.30;;;22.00;58.60;;;;;;5069551;28;20488;-68
2022/12/30 06:12:49;;;;;;;0.30;0.30;;;21.90;58.50;;;;;;5077624;28;20560;-68
2022/12/30 06:15:17;;;;;;;0.50;0.33;;;21.90;58.80;;;;;;5077961;28;20465;-68
2022/12/30 06:17:45;;;;;;;1.13;0.40;;;21.90;58.90;;;;;;5067818;28;20469;-72
2022/12/30 06:20:13;;;;;;;0.50;0.40;;;21.80;58.90;;;;;;5068471;28;20450;-68
2022/12/30 06:22:41;;;;;;;0.40;0.40;;;21.80;59.10;;;;;;5064066;28;20811;-69
2022/12/30 06:25:11;;;;;;;0.40;0.40;;;21.80;59.00;;;;;;5066278;28;20457;-69
2022/12/30 06:27:39;;;;;;;0.30;0.30;;;21.80;58.90;;;;;;5067194;28;20941;-68
2022/12/30 06:30:09;;;;;;;0.43;0.40;;;21.80;58.90;;;;;;5069091;28;20463;-68
2022/12/30 06:32:37;;;;;;;0.53;0.43;;;21.80;59.10;;;;;;5075388;28;20462;-69
2022/12/30 06:35:06;;;;;;;0.40;0.40;;;21.70;58.90;;;;;;5071614;28;20498;-68
2022/12/30 06:37:34;;;;;;;0.43;0.43;;;21.80;59.30;;;;;;5070604;28;20491;-68
2022/12/30 06:40:02;;;;;;;0.40;0.30;;;21.80;59.30;;;;;;5071464;28;20446;-70
2022/12/30 06:42:32;;;;;;;0.30;0.30;;;21.80;59.20;;;;;;5066280;28;20524;-69
2022/12/30 06:45:00;;;;;;;0.30;0.30;;;21.80;59.30;;;;;;5064990;28;20516;-69
2022/12/30 06:47:28;;;;;;;0.40;0.40;;;21.80;59.30;;;;;;5075463;28;20497;-70
2022/12/30 06:49:56;;;;;;;0.30;0.30;;;21.80;59.30;;;;;;5070051;28;20478;-68
2022/12/30 06:52:24;;;;;;;0.63;0.40;;;21.80;59.20;;;;;;5065492;28;20535;-68
2022/12/30 06:54:52;;;;;;;0.30;0.30;;;21.80;59.20;;;;;;5067919;28;20510;-68
2022/12/30 06:57:21;;;;;;;0.33;0.33;;;21.90;59.10;;;;;;5065685;28;20480;-69
2022/12/30 06:59:50;;;;;;;0.40;0.40;;;21.90;59.10;;;;;;5066981;28;20812;-70
2022/12/30 07:02:18;;;;;;;0.30;0.30;;;21.90;59.00;;;;;;5067556;28;20455;-68
2022/12/30 07:04:46;;;;;;;0.57;0.40;;;21.90;59.00;;;;;;5068145;28;20857;-69
2022/12/30 07:07:15;;;;;;;0.43;0.40;;;21.90;59.00;;;;;;5082577;28;20497;-69
2022/12/30 07:09:43;;;;;;;0.40;0.40;;;21.90;59.00;;;;;;5062232;28;20562;-68
2022/12/30 07:12:11;;;;;;;0.40;0.30;;;21.90;58.90;;;;;;5066651;28;20458;-69
2022/12/30 07:14:39;;;;;;;0.40;0.30;;;22.00;58.90;;;;;;5068715;28;20544;-69
2022/12/30 07:17:08;;;;;;;0.40;0.37;;;22.00;58.90;;;;;;5069030;28;20452;-69
2022/12/30 07:19:37;;;;;;;0.40;0.30;;;22.00;58.90;;;;;;5059947;28;20467;-69
2022/12/30 07:22:05;;;;;;;0.40;0.30;;;21.90;58.90;;;;;;5060960;28;20474;-71
2022/12/30 07:24:33;;;;;;;0.40;0.40;;;21.90;59.00;;;;;;5074522;28;20488;-69
2022/12/30 07:27:01;;;;;;;0.53;0.50;;;21.90;59.00;;;;;;5071597;28;20447;-68
2022/12/30 07:29:29;;;;;;;0.60;0.50;;;21.90;59.00;;;;;;5078516;28;20549;-69
2022/12/30 07:31:58;;;;;;;0.97;0.50;;;21.90;59.00;;;;;;5068354;28;20507;-68
2022/12/30 07:34:27;;;;;;;0.40;0.30;;;21.90;59.00;;;;;;5064835;28;20869;-68
2022/12/30 07:36:55;;;;;;;0.50;0.33;;;21.90;59.10;;;;;;5066070;28;20946;-69
2022/12/30 07:39:24;;;;;;;1.13;0.33;;;21.90;59.10;;;;;;5068979;28;20955;-68
2022/12/30 07:41:52;;;;;;;0.50;0.30;;;21.90;59.10;;;;;;5067995;28;20459;-69
2022/12/30 07:44:22;;;;;;;0.30;0.30;;;21.80;59.10;;;;;;5072041;28;20811;-69
2022/12/30 07:46:50;;;;;;;0.50;0.40;;;21.80;59.10;;;;;;5066460;28;20544;-67
2022/12/30 07:49:18;;;;;;;0.40;0.40;;;21.80;59.10;;;;;;5073548;28;20972;-71
2022/12/30 07:51:48;;;;;;;0.67;0.47;;;21.80;59.10;;;;;;5074053;28;20459;-70
2022/12/30 07:54:16;;;;;;;0.30;0.30;;;21.80;59.10;;;;;;5063852;28;20498;-68
2022/12/30 07:56:44;;;;;;;0.50;0.50;;;21.80;59.20;;;;;;5045466;28;20802;-68
2022/12/30 07:59:12;;;;;;;0.43;0.43;;;21.90;59.20;;;;;;5054494;28;20544;-69
2022/12/30 08:01:41;;;;;;;1.10;0.50;;;21.90;59.20;;;;;;5055475;28;20546;-68
2022/12/30 08:04:09;;;;;;;0.80;0.40;;;21.90;59.20;;;;;;5062934;28;20453;-68
2022/12/30 08:06:58;;;;;;;1.17;0.47;;;21.90;59.30;;;;;;5060322;28;20458;-69
2022/12/30 08:09:28;;;;;;;2.67;0.80;;;21.90;59.30;;;;;;5059963;28;20473;-71
2022/12/30 08:11:57;;;;;;;4.20;0.63;;;22.00;59.30;;;;;;5054323;28;20463;-70
2022/12/30 08:14:25;;;;;;;1.67;0.80;;;22.00;59.30;;;;;;5053462;28;21014;-70
2022/12/30 08:16:54;;;;;;;2.23;0.47;;;22.00;59.30;;;;;;5055013;28;20533;-70
2022/12/30 08:19:22;;;;;;;2.00;0.70;;;22.00;59.30;;;;;;5057634;28;20933;-70
2022/12/30 08:21:50;;;;;;;1.43;0.77;;;22.00;59.30;;;;;;5061007;28;20473;-70
2022/12/30 08:24:20;;;;;;;1.23;1.00;;;22.00;59.30;;;;;;5054336;28;20451;-70
2022/12/30 08:26:48;;;;;;;0.93;0.40;;;22.00;59.30;;;;;;5050638;28;20510;-71
2022/12/30 08:29:16;;;;;;;1.17;0.50;;;22.00;59.30;;;;;;5052428;28;20459;-71
2022/12/30 08:31:49;;;;;;;0.97;0.53;;;22.00;59.40;;;;;;5055563;28;20494;-70
2022/12/30 08:34:19;;;;;;;1.10;0.50;;;22.10;59.40;;;;;;5052231;28;20457;-70
2022/12/30 08:36:48;;;;;;;1.73;1.00;;;22.00;59.50;;;;;;5059539;28;21007;-71
2022/12/30 08:39:17;;;;;;;2.77;0.57;;;22.00;59.60;;;;;;5050040;28;20467;-70
2022/12/30 08:41:47;;;;;;;7.03;0.80;;;22.00;59.70;;;;;;5064082;28;20526;-70
2022/12/30 08:44:24;;;;;;;1.50;1.10;;;22.00;59.80;;;;;;5062683;28;20454;-71
2022/12/30 08:46:52;;;;;;;13.40;1.47;;;22.00;59.90;;;;;;5055139;28;20456;-70
2022/12/30 08:49:21;;;;;;;1.83;1.07;;;22.00;59.90;;;;;;5049631;28;20454;-70
2022/12/30 08:51:49;;;;;;;2.93;1.07;;;22.00;59.90;;;;;;5047336;28;21004;-71
2022/12/30 08:54:18;;;;;;;4.20;1.13;;;22.00;60.00;;;;;;5049031;28;20504;-71
2022/12/30 08:56:48;;;;;;;3.80;0.67;;;22.00;60.00;;;;;;5047697;28;20978;-70
2022/12/30 08:59:17;;;;;;;6.10;1.20;;;22.00;60.00;;;;;;5049136;28;20475;-70
2022/12/30 09:01:45;;;;;;;3.13;1.27;;;22.00;60.00;;;;;;5045627;28;20541;-70
2022/12/30 09:04:14;;;;;;;3.90;0.93;;;22.00;60.00;;;;;;5046558;28;21014;-70
2022/12/30 09:06:43;;;;;;;1.77;1.00;;;22.00;59.90;;;;;;5045763;28;21025;-72
2022/12/30 09:09:13;;;;;;;4.43;1.30;;;22.00;59.90;;;;;;5058964;28;20545;-70
2022/12/30 09:11:43;;;;;;;3.90;1.37;;;22.00;60.00;;;;;;5060418;28;20516;-70
2022/12/30 09:14:15;;;;;;;3.13;1.00;;;22.00;60.00;;;;;;5059062;28;20498;-71
2022/12/30 09:16:43;;;;;;;2.60;0.93;;;22.00;60.00;;;;;;5049626;28;20452;-71
2022/12/30 09:19:11;;;;;;;5.80;1.10;;;22.00;60.00;;;;;;5046413;28;20526;-70
2022/12/30 09:21:48;;;;;;;4.37;1.33;;;22.10;60.00;;;;;;5055072;28;20919;-71
2022/12/30 09:24:16;;;;;;;4.60;1.30;;;22.10;60.00;;;;;;5054216;28;20454;-70
2022/12/30 09:26:44;;;;;;;1.93;1.37;;;22.10;59.90;;;;;;5049666;28;20443;-70
2022/12/30 09:29:15;;;;;;;1.60;0.97;;;22.10;59.90;;;;;;5043553;28;20461;-70
2022/12/30 09:31:43;;;;;;;5.40;1.17;;;22.10;59.90;;;;;;5061192;28;20458;-70
2022/12/30 09:34:12;;;;;;;3.17;1.30;;;22.10;59.80;;;;;;5048458;28;20626;-70
2022/12/30 09:36:40;;;;;;;1.13;1.03;;;22.10;59.80;;;;;;5051713;28;20517;-70
2022/12/30 09:39:10;;;;;;;2.43;1.07;;;22.10;59.80;;;;;;5044895;28;20471;-70
2022/12/30 09:44:49;;;;;;;1.53;1.20;;;22.10;59.80;;;;;;5045786;28;20479;-70
2022/12/30 09:47:23;;;;;;;2.00;0.90;;;22.10;59.80;;;;;;5045986;28;20458;-71
2022/12/30 09:49:56;;;;;;;1.30;0.63;;;22.10;59.80;;;;;;5054409;28;20486;-70
2022/12/30 09:52:29;;;;;;;1.90;0.90;;;22.10;59.80;;;;;;5048973;28;20561;-71
2022/12/30 09:55:03;;;;;;;2.20;1.20;;;22.10;59.80;;;;;;5057653;28;20482;-70
2022/12/30 09:57:35;;;;;;;1.37;1.20;;;22.10;59.80;;;;;;5058576;28;20493;-70
2022/12/30 10:00:16;;;;;;;2.93;1.03;;;22.10;59.80;;;;;;5055629;28;20474;-71
2022/12/30 10:02:55;;;;;;;1.13;0.73;;;22.10;59.80;;;;;;5044226;28;20542;-70
2022/12/30 10:05:36;;;;;;;2.67;1.17;;;22.20;59.70;;;;;;5055263;28;20456;-70
2022/12/30 10:08:16;;;;;;;2.60;1.10;;;22.20;59.70;;;;;;5042656;28;20458;-69
2022/12/30 10:10:51;;;;;;;1.00;0.90;;;22.20;59.70;;;;;;5035202;28;21124;-69
2022/12/30 10:13:28;;;;;;;2.60;1.10;;;22.20;59.60;;;;;;5040037;28;20925;-70
2022/12/30 10:16:05;;;;;;;2.27;0.90;;;22.30;59.60;;;;;;5026984;28;20489;-70
2022/12/30 10:18:56;;;;;;;2.60;1.00;;;22.40;59.50;;;;;;5047640;28;20455;-69
2022/12/30 10:21:37;;;;;;;5.37;0.80;;;22.40;59.50;;;;;;5040188;28;20543;-70
2022/12/30 10:24:21;;;;;;;1.20;0.93;;;22.50;59.40;;;;;;5038816;28;20479;-70
2022/12/30 10:26:51;;;;;;;1.57;0.83;;;22.50;59.40;;;;;;5052110;28;20440;-69
2022/12/30 10:29:23;;;;;;;3.13;1.00;;;22.50;59.50;;;;;;5045123;28;20539;-70
2022/12/30 10:31:54;;;;;;;1.70;0.90;;;22.60;59.50;;;;;;5047894;28;20733;-70
2022/12/30 10:34:25;;;;;;;8.53;1.37;;;22.70;59.30;;;;;;5044985;28;20463;-70
2022/12/30 10:37:00;;;;;;;2.00;0.80;;;22.70;59.20;;;;;;5047266;28;20812;-71
2022/12/30 10:39:32;;;;;;;1.37;0.90;;;22.80;59.00;;;;;;5055022;28;20474;-71
2022/12/30 10:42:26;;;;;;;3.90;1.10;;;22.90;58.90;;;;;;5052414;28;20595;-70
2022/12/30 10:45:07;;;;;;;3.83;0.87;;;23.00;58.80;;;;;;5036889;28;20522;-70
2022/12/30 10:47:52;;;;;;;0.93;0.83;;;23.10;58.50;;;;;;5038094;28;20467;-70
2022/12/30 10:50:30;;;;;;;1.53;1.03;;;23.20;58.30;;;;;;5043839;28;20514;-70
2022/12/30 10:52:59;;;;;;;3.33;1.00;;;23.30;58.00;;;;;;5049165;28;20791;-71
2022/12/30 10:55:31;;;;;;;1.47;0.80;;;23.40;57.70;;;;;;5055481;28;20878;-71
2022/12/30 10:58:02;;;;;;;4.83;1.10;;;23.50;57.50;;;;;;5053032;28;20509;-70
2022/12/30 11:00:32;;;;;;;1.63;0.93;;;23.60;57.30;;;;;;5052698;28;20478;-69
2022/12/30 11:03:05;;;;;;;2.83;0.97;;;23.70;57.20;;;;;;5054643;28;20448;-71
2022/12/30 11:05:38;;;;;;;1.60;0.90;;;23.70;57.00;;;;;;5053256;28;20456;-71
2022/12/30 11:08:17;;;;;;;4.43;1.00;;;23.70;57.20;;;;;;5054640;28;20966;-69
2022/12/30 11:10:58;;;;;;;1.23;0.83;;;23.70;57.10;;;;;;5056320;28;20476;-70
2022/12/30 11:16:13;;;;;;;1.33;0.77;;;23.70;57.00;;;;;;5059465;28;20454;-71
2022/12/30 11:18:46;;;;;;;0.90;0.90;;;23.80;57.00;;;;;;5063512;28;20470;-71
2022/12/30 11:21:24;;;;;;;1.53;1.27;;;23.80;57.00;;;;;;5063973;28;20478;-71
2022/12/30 11:23:54;;;;;;;1.60;1.07;;;23.80;57.10;;;;;;5055710;28;20560;-71
2022/12/30 11:26:25;;;;;;;2.30;1.17;;;23.90;57.00;;;;;;5057930;28;20976;-71
2022/12/30 11:28:56;;;;;;;2.10;0.93;;;23.90;57.00;;;;;;5047808;28;20570;-71
2022/12/30 11:31:33;;;;;;;1.13;1.03;;;23.90;57.20;;;;;;5058161;28;20899;-71
2022/12/30 11:34:06;;;;;;;1.73;1.10;;;24.00;57.10;;;;;;5053292;28;20455;-70
2022/12/30 11:36:36;;;;;;;2.00;1.30;;;24.00;57.00;;;;;;5048564;28;20465;-70
2022/12/30 11:39:25;;;;;;;2.70;1.30;;;24.00;56.90;;;;;;5059797;28;20965;-72
2022/12/30 11:41:55;;;;;;;1.70;1.23;;;24.10;56.90;;;;;;5055755;28;20472;-71
2022/12/30 11:44:25;;;;;;;3.50;1.40;;;24.10;57.00;;;;;;5050259;28;20818;-71
2022/12/30 11:46:56;;;;;;;3.33;1.47;;;24.10;57.10;;;;;;5047174;28;20491;-72
2022/12/30 11:49:29;;;;;;;2.53;1.00;;;24.10;56.90;;;;;;5053766;28;20451;-72
2022/12/30 11:51:59;;;;;;;3.70;1.23;;;24.10;56.80;;;;;;5054234;28;20455;-71
2022/12/30 11:54:31;;;;;;;2.77;1.23;;;24.10;56.70;;;;;;5042989;28;20491;-71
2022/12/30 11:57:02;;;;;;;4.20;1.53;;;24.10;56.60;;;;;;5043288;28;20514;-73
2022/12/30 11:59:33;;;;;;;3.00;1.30;;;24.20;56.50;;;;;;5058681;28;20459;-72
2022/12/30 12:02:06;;;;;;;2.60;1.60;;;24.20;56.50;;;;;;5056784;28;20510;-71
2022/12/30 12:04:39;;;;;;;5.80;1.40;;;24.20;56.60;;;;;;5053503;28;20551;-72
2022/12/30 12:07:20;;;;;;;2.93;0.93;;;24.10;56.60;;;;;;5050088;28;20470;-70
2022/12/30 12:09:52;;;;;;;2.90;1.00;;;24.10;56.60;;;;;;5048573;28;20948;-72
2022/12/30 12:12:25;;;;;;;2.80;1.23;;;24.10;56.60;;;;;;5051752;28;20457;-71
2022/12/30 12:15:01;;;;;;;4.30;1.80;;;24.20;56.60;;;;;;5049849;28;20509;-72
2022/12/30 12:17:41;;;;;;;8.27;2.10;;;24.20;56.50;;;;;;5055183;28;20485;-72
2022/12/30 12:20:21;;;;;;;5.50;1.67;;;24.30;56.10;;;;;;5043916;28;20519;-73
2022/12/30 12:23:16;;;;;;;5.87;1.37;;;24.30;56.10;;;;;;5048127;28;20508;-72
2022/12/30 12:25:54;;;;;;;3.97;1.67;;;24.40;55.70;;;;;;5039623;28;20790;-73
2022/12/30 12:28:31;;;;;;;2.77;1.50;;;24.40;55.70;;;;;;5043931;28;20459;-73
2022/12/30 12:31:16;;;;;;;5.13;1.40;;;24.40;55.70;;;;;;5043497;28;20453;-73
2022/12/30 12:33:51;;;;;;;4.40;1.37;;;24.40;55.80;;;;;;5053824;28;20459;-73
2022/12/30 12:36:29;;;;;;;5.53;1.43;;;24.40;56.10;;;;;;5045782;28;20447;-74
2022/12/30 12:39:03;;;;;;;4.37;1.60;;;24.30;56.50;;;;;;5040713;28;20449;-73
2022/12/30 12:41:47;;;;;;;1.70;1.40;;;24.20;57.10;;;;;;5037353;28;20482;-73
2022/12/30 12:44:50;;;;;;;2.10;1.03;;;24.10;57.20;;;;;;5051652;28;20477;-74
2022/12/30 12:47:38;;;;;;;5.53;1.27;;;24.00;57.00;;;;;;5049706;28;20876;-74
2022/12/30 12:50:30;;;;;;;6.30;1.43;;;23.90;57.00;;;;;;5051445;28;20475;-74
2022/12/30 12:53:14;;;;;;;2.90;1.07;;;23.80;57.00;;;;;;5042940;28;20464;-74
2022/12/30 12:56:08;;;;;;;3.63;1.40;;;23.70;56.80;;;;;;5052871;28;20544;-74
2022/12/30 12:58:45;;;;;;;3.63;1.60;;;23.70;56.80;;;;;;5047066;28;20555;-74
2022/12/30 13:01:24;;;;;;;5.30;1.60;;;23.60;57.00;;;;;;5038542;28;20470;-73
2022/12/30 13:04:15;;;;;;;3.97;1.13;;;23.50;57.00;;;;;;5045223;28;20458;-74
2022/12/30 13:06:53;;;;;;;5.93;1.13;;;23.40;57.00;;;;;;5051525;28;20490;-73
2022/12/30 13:09:37;;;;;;;2.87;1.30;;;23.30;57.30;;;;;;5045396;28;20542;-73
2022/12/30 13:12:12;;;;;;;4.63;1.30;;;23.30;57.40;;;;;;5046973;28;20471;-73
2022/12/30 13:14:44;;;;;;;4.43;1.97;;;23.20;57.50;;;;;;5051147;28;21358;-72
2022/12/30 13:17:17;;;;;;;3.20;1.60;;;23.20;57.60;;;;;;5049010;28;20451;-73
2022/12/30 13:19:54;;;;;;;5.70;1.40;;;23.10;57.70;;;;;;5048675;28;20596;-73
2022/12/30 13:22:33;;;;;;;4.87;1.50;;;23.10;57.80;;;;;;5044241;28;20474;-73
2022/12/30 13:25:05;;;;;;;5.13;1.70;;;23.00;58.00;;;;;;5049929;28;20533;-73
2022/12/30 13:27:34;;;;;;;2.87;1.27;;;23.00;58.00;;;;;;5042351;28;20484;-75
2022/12/30 13:30:05;;;;;;;1.37;1.10;;;23.00;58.00;;;;;;5042110;28;20557;-73
2022/12/30 13:32:40;;;;;;;4.80;1.97;;;22.90;58.10;;;;;;5046196;28;21038;-72
2022/12/30 13:35:36;;;;;;;3.57;1.70;;;22.90;58.20;;;;;;5047429;28;20469;-72
2022/12/30 13:38:16;;;;;;;6.00;1.53;;;22.90;58.30;;;;;;5045489;28;20502;-72
2022/12/30 13:40:55;;;;;;;4.83;2.17;;;22.90;58.30;;;;;;5049875;28;20480;-73
2022/12/30 13:43:32;;;;;;;5.03;1.33;;;22.90;58.30;;;;;;5045196;28;20515;-72
2022/12/30 13:46:03;;;;;;;4.83;1.47;;;22.90;58.40;;;;;;5048230;28;20553;-73
2022/12/30 13:48:33;;;;;;;6.37;1.67;;;22.90;58.40;;;;;;5057772;28;21810;-72
2022/12/30 13:51:04;;;;;;;4.80;1.90;;;22.90;58.40;;;;;;5041262;28;20910;-72
2022/12/30 13:53:38;;;;;;;7.63;2.87;;;22.90;58.30;;;;;;5045328;28;20487;-73
2022/12/30 13:56:09;;;;;;;2.10;1.47;;;22.90;58.30;;;;;;5042929;28;20570;-73
2022/12/30 13:58:45;;;;;;;6.23;1.80;;;22.90;58.30;;;;;;5047193;28;20459;-73
2022/12/30 14:01:29;;;;;;;4.20;2.17;;;22.90;58.40;;;;;;5049434;28;20471;-74
2022/12/30 14:04:33;;;;;;;3.50;1.40;;;22.90;58.40;;;;;;5050553;28;20824;-74
2022/12/30 14:07:02;;;;;;;6.00;1.97;;;22.80;58.50;;;;;;5046114;28;20491;-73
2022/12/30 14:09:31;;;;;;;8.00;2.53;;;22.80;58.60;;;;;;5051281;28;20457;-74
2022/12/30 14:12:33;;;;;;;6.70;2.90;;;22.80;58.70;;;;;;5050939;28;20525;-73
2022/12/30 14:15:35;;;;;;;6.60;1.90;;;22.80;58.70;;;;;;5051305;28;20455;-72